This is the latest recevied weather packets stored in our database for station/object OM0AGP-15. If no packets are shown the sender has not sent any weather packets the latest 1 day(s).
| Time | Temp. | Humidity | Pressure | Rain* | Wind** | Luminosity | Snow |
|---|---|---|---|---|---|---|---|
| 1778085764 | 17.78° C | 48% | 1009.8 hPa | - | - | - | - |
| 1778083964 | 17.78° C | 47% | 1009.9 hPa | - | - | - | - |
| 1778083064 | 18.33° C | 48% | 1009.9 hPa | - | - | - | - |
| 1778082164 | 18.33° C | 46% | 1009.8 hPa | - | - | - | - |
| 1778081264 | 18.89° C | 44% | 1009.7 hPa | - | - | - | - |
| 1778080364 | 18.89° C | 42% | 1009.7 hPa | - | - | - | - |
| 1778077664 | 20° C | 41% | 1009.8 hPa | - | - | - | - |
| 1778069563 | 19.44° C | 43% | 1010 hPa | - | - | - | - |
| 1778068663 | 20° C | 45% | 1009.9 hPa | - | - | - | - |
| 1778067763 | 19.44° C | 44% | 1010 hPa | - | - | - | - |
| 1778066863 | 19.44° C | 45% | 1010 hPa | - | - | - | - |
| 1778065963 | 19.44° C | 44% | 1010 hPa | - | - | - | - |
| 1778065063 | 19.44° C | 44% | 1010.1 hPa | - | - | - | - |
| 1778059662 | 19.44° C | 43% | 1009.8 hPa | - | - | - | - |
| 1778057862 | 18.89° C | 47% | 1009.8 hPa | - | - | - | - |
| 1778056962 | 18.33° C | 47% | 1009.7 hPa | - | - | - | - |
| 1778056062 | 18.89° C | 45% | 1009.6 hPa | - | - | - | - |
| 1778055162 | 18.89° C | 44% | 1009.5 hPa | - | - | - | - |
| 1778054262 | 20.56° C | 41% | 1009.5 hPa | - | - | - | - |
| 1778053362 | 21.11° C | 40% | 1009.6 hPa | - | - | - | - |
| 1778052462 | 21.67° C | 39% | 1009.7 hPa | - | - | - | - |
| 1778051562 | 22.22° C | 37% | 1009.8 hPa | - | - | - | - |
| 1778050662 | 21.67° C | 41% | 1009.9 hPa | - | - | - | - |
| 1778049762 | 21.11° C | 39% | 1009.8 hPa | - | - | - | - |
| 1778044361 | 16.11° C | 50% | 1009.6 hPa | - | - | - | - |
* Rain since midnight (hover to see other rain measurements)
** Current wind speed in m/s (hover to see current wind gust speed)